createdAt,value
2023-01-03T00:02:16.119Z,92545.19
2023-01-03T00:04:48.949Z,92536.63
2023-01-03T00:07:33.824Z,92542.50
2023-01-03T00:10:06.981Z,92540.63
2023-01-03T00:12:33.701Z,92544.16
2023-01-03T00:15:00.620Z,92543.16
2023-01-03T00:17:27.750Z,92543.28
2023-01-03T00:19:54.487Z,92539.03
2023-01-03T00:22:21.173Z,92539.91
2023-01-03T00:24:48.589Z,92542.56
2023-01-03T00:27:15.709Z,92533.63
2023-01-03T00:29:42.742Z,92535.53
2023-01-03T00:32:09.581Z,92540.75
2023-01-03T00:34:36.578Z,92535.38
2023-01-03T00:37:03.268Z,92538.53
2023-01-03T00:39:29.922Z,92544.91
2023-01-03T00:41:56.675Z,92555.97
2023-01-03T00:44:23.434Z,92535.59
2023-01-03T00:46:50.039Z,92539.34
2023-01-03T00:49:16.772Z,92533.13
2023-01-03T00:51:43.556Z,92540.38
2023-01-03T00:54:10.462Z,92531.03
2023-01-03T00:56:38.867Z,92533.38
2023-01-03T00:59:05.710Z,92522.88
2023-01-03T01:01:42.221Z,92526.16
2023-01-03T01:04:18.658Z,92535.50
2023-01-03T01:06:59.464Z,92529.75
2023-01-03T01:09:30.964Z,92532.50
2023-01-03T01:11:57.811Z,92529.59
2023-01-03T01:14:25.581Z,92521.84
2023-01-03T01:17:00.231Z,92526.28
2023-01-03T01:19:29.903Z,92532.28
2023-01-03T01:21:56.545Z,92522.97
2023-01-03T01:24:23.466Z,92524.69
2023-01-03T01:26:50.154Z,92522.34
2023-01-03T01:29:17.072Z,92520.88
2023-01-03T01:31:44.845Z,92518.38
2023-01-03T01:34:12.246Z,92519.47
2023-01-03T01:36:41.929Z,92512.72
2023-01-03T01:39:11.387Z,92512.81
2023-01-03T01:41:56.543Z,92519.25
2023-01-03T01:44:52.348Z,92514.06
2023-01-03T01:47:31.177Z,92508.38
2023-01-03T01:50:03.815Z,92505.41
2023-01-03T01:52:31.026Z,92501.53
2023-01-03T01:54:57.737Z,92498.97
2023-01-03T01:57:24.622Z,92504.50
2023-01-03T01:59:51.227Z,92501.69
2023-01-03T02:02:20.180Z,92496.31
2023-01-03T02:04:48.101Z,92504.59
2023-01-03T02:07:15.311Z,92496.72
2023-01-03T02:09:41.899Z,92498.03
2023-01-03T02:12:59.936Z,92492.84
2023-01-03T02:15:33.674Z,92500.34
2023-01-03T02:18:24.780Z,92491.72
2023-01-03T02:21:21.266Z,92490.56
2023-01-03T02:24:07.260Z,92492.22
2023-01-03T02:26:36.762Z,92485.69
2023-01-03T02:29:39.015Z,92489.66
2023-01-03T02:32:28.813Z,92489.09
2023-01-03T02:35:02.183Z,92482.25
2023-01-03T02:37:43.274Z,92482.06
2023-01-03T02:40:26.572Z,92484.03
2023-01-03T02:42:59.091Z,92482.38
2023-01-03T02:45:39.828Z,92488.25
2023-01-03T02:48:11.687Z,92486.94
2023-01-03T02:50:51.971Z,92486.00
2023-01-03T02:53:22.127Z,92481.06
2023-01-03T02:55:49.706Z,92486.50
2023-01-03T02:58:18.404Z,92494.47
2023-01-03T03:00:48.689Z,92487.22
2023-01-03T03:03:17.036Z,92502.16
2023-01-03T03:05:53.123Z,92495.59
2023-01-03T03:08:19.785Z,92499.06
2023-01-03T03:11:05.728Z,92490.44
2023-01-03T03:13:36.834Z,92489.84
2023-01-03T03:16:43.250Z,92494.56
2023-01-03T03:19:35.630Z,92490.75
2023-01-03T03:22:22.474Z,92495.00
2023-01-03T03:24:52.270Z,92480.72
2023-01-03T03:27:40.808Z,92492.13
2023-01-03T03:30:10.098Z,92484.31
2023-01-03T03:32:36.863Z,92483.19
2023-01-03T03:35:03.949Z,92478.59
2023-01-03T03:37:30.726Z,92488.44
2023-01-03T03:40:15.929Z,92479.00
2023-01-03T03:43:16.456Z,92485.56
2023-01-03T03:46:02.721Z,92476.66
2023-01-03T03:48:30.453Z,92482.50
2023-01-03T03:51:08.174Z,92480.97
2023-01-03T03:53:35.137Z,92486.94
2023-01-03T03:56:05.579Z,92487.25
2023-01-03T03:58:39.327Z,92481.25
2023-01-03T04:01:05.843Z,92488.25
2023-01-03T04:03:32.586Z,92492.41
2023-01-03T04:06:00.932Z,92489.63
2023-01-03T04:08:27.632Z,92487.63
2023-01-03T04:11:05.592Z,92487.84
2023-01-03T04:13:33.533Z,92489.97
2023-01-03T04:16:00.324Z,92485.94
2023-01-03T04:18:26.999Z,92489.75
2023-01-03T04:20:53.738Z,92487.66
2023-01-03T04:23:20.531Z,92493.59
2023-01-03T04:25:49.136Z,92490.72
2023-01-03T04:28:16.485Z,92496.56
2023-01-03T04:30:43.275Z,92491.06
2023-01-03T04:33:09.975Z,92487.78
2023-01-03T04:35:36.804Z,92487.78
2023-01-03T04:38:04.037Z,92492.44
2023-01-03T04:40:30.711Z,92492.66
2023-01-03T04:43:16.011Z,92493.66
2023-01-03T04:45:42.651Z,92494.41
2023-01-03T04:48:09.390Z,92504.59
2023-01-03T04:50:36.056Z,92510.22
2023-01-03T04:53:02.693Z,92506.56
2023-01-03T04:55:29.324Z,92505.09
2023-01-03T04:57:55.944Z,92502.78
2023-01-03T05:00:22.704Z,92504.03
2023-01-03T05:02:49.319Z,92502.75
2023-01-03T05:05:15.974Z,92504.22
2023-01-03T05:07:42.600Z,92508.88
2023-01-03T05:10:09.332Z,92516.03
2023-01-03T05:12:36.000Z,92522.59
2023-01-03T05:15:02.729Z,92514.13
2023-01-03T05:17:29.287Z,92530.50
2023-01-03T05:20:14.380Z,92528.50
2023-01-03T05:22:59.831Z,92522.13
2023-01-03T05:25:45.212Z,92523.44
2023-01-03T05:28:17.116Z,92526.09
2023-01-03T05:30:44.288Z,92523.97
2023-01-03T05:33:10.942Z,92531.13
2023-01-03T05:35:38.334Z,92532.31
2023-01-03T05:38:05.082Z,92534.13
2023-01-03T05:40:36.192Z,92534.28
2023-01-03T05:43:06.010Z,92538.09
2023-01-03T05:45:32.997Z,92528.19
2023-01-03T05:47:59.641Z,92540.75
2023-01-03T05:50:26.310Z,92527.84
2023-01-03T05:52:52.987Z,92530.72
2023-01-03T05:55:19.728Z,92535.63
2023-01-03T05:57:47.351Z,92532.81
2023-01-03T06:00:14.613Z,92532.13
2023-01-03T06:02:41.351Z,92539.88
2023-01-03T06:05:08.547Z,92531.78
2023-01-03T06:07:37.291Z,92533.78
2023-01-03T06:10:05.310Z,92541.22
2023-01-03T06:12:32.060Z,92541.56
2023-01-03T06:14:58.805Z,92542.69
2023-01-03T06:17:43.841Z,92541.44
2023-01-03T06:20:10.457Z,92548.16
2023-01-03T06:22:37.141Z,92544.81
2023-01-03T06:25:03.970Z,92540.09
2023-01-03T06:27:30.545Z,92539.25
2023-01-03T06:29:57.237Z,92551.63
2023-01-03T06:32:24.018Z,92558.38
2023-01-03T06:34:50.743Z,92549.34
2023-01-03T06:37:17.569Z,92552.66
2023-01-03T06:39:45.600Z,92550.34
2023-01-03T06:42:30.874Z,92554.91
2023-01-03T06:45:15.994Z,92554.13
2023-01-03T06:48:00.954Z,92559.72
2023-01-03T06:50:46.065Z,92558.38
2023-01-03T06:53:14.405Z,92557.56
2023-01-03T06:55:41.895Z,92555.72
2023-01-03T06:58:08.675Z,92559.72
2023-01-03T07:00:38.988Z,92553.00
2023-01-03T07:03:11.109Z,92555.97
2023-01-03T07:05:38.388Z,92555.63
2023-01-03T07:08:05.093Z,92548.53
2023-01-03T07:10:31.786Z,92545.53
2023-01-03T07:13:19.483Z,92544.75
2023-01-03T07:15:46.259Z,92548.25
2023-01-03T07:18:12.899Z,92548.69
2023-01-03T07:20:43.472Z,92550.84
2023-01-03T07:23:10.612Z,92557.63
2023-01-03T07:25:41.313Z,92551.81
2023-01-03T07:28:11.153Z,92552.53
2023-01-03T07:30:42.370Z,92546.09
2023-01-03T07:33:09.604Z,92550.25
2023-01-03T07:35:36.499Z,92551.06
2023-01-03T07:38:03.294Z,92557.06
2023-01-03T07:40:30.008Z,92554.47
2023-01-03T07:43:15.145Z,92559.97
2023-01-03T07:45:42.567Z,92556.28
2023-01-03T07:48:09.807Z,92551.59
2023-01-03T07:50:37.346Z,92560.25
2023-01-03T07:53:04.702Z,92558.69
2023-01-03T07:55:35.302Z,92559.84
2023-01-03T07:58:02.358Z,92557.94
2023-01-03T08:00:28.989Z,92557.97
2023-01-03T08:02:56.194Z,92556.94
2023-01-03T08:05:23.466Z,92555.88
2023-01-03T08:07:50.761Z,92554.25
2023-01-03T08:10:36.439Z,92549.91
2023-01-03T08:13:18.304Z,92556.69
2023-01-03T08:15:47.950Z,92552.56
2023-01-03T08:18:15.664Z,92550.66
2023-01-03T08:20:42.482Z,92548.53
2023-01-03T08:23:09.548Z,92553.06
2023-01-03T08:25:36.311Z,92554.78
2023-01-03T08:28:02.988Z,92549.28
2023-01-03T08:30:29.797Z,92555.53
2023-01-03T08:32:56.673Z,92543.75
2023-01-03T08:35:23.408Z,92549.84
2023-01-03T08:37:50.412Z,92551.94
2023-01-03T08:40:17.450Z,92544.94
2023-01-03T08:42:44.398Z,92554.44
2023-01-03T08:45:12.516Z,92543.06
2023-01-03T08:47:39.233Z,92532.72
2023-01-03T08:50:05.962Z,92536.31
2023-01-03T08:52:35.266Z,92530.16
2023-01-03T08:55:02.462Z,92535.13
2023-01-03T08:57:29.116Z,92529.63
2023-01-03T08:59:55.765Z,92527.72
2023-01-03T09:02:22.622Z,92530.34
2023-01-03T09:04:49.525Z,92525.78
2023-01-03T09:07:16.152Z,92528.44
2023-01-03T09:09:42.852Z,92527.06
2023-01-03T09:12:09.596Z,92522.13
2023-01-03T09:14:36.326Z,92520.00
2023-01-03T09:17:02.915Z,92520.28
2023-01-03T09:19:29.598Z,92523.69
2023-01-03T09:21:56.178Z,92521.09
2023-01-03T09:24:22.857Z,92513.50
2023-01-03T09:26:54.586Z,92507.22
2023-01-03T09:29:21.737Z,92507.41
2023-01-03T09:31:48.539Z,92507.03
2023-01-03T09:34:15.243Z,92506.72
2023-01-03T09:36:41.934Z,92505.13
2023-01-03T09:39:08.542Z,92494.63
2023-01-03T09:41:35.184Z,92492.13
2023-01-03T09:44:03.721Z,92480.25
2023-01-03T09:46:31.058Z,92479.28
2023-01-03T09:48:57.816Z,92473.16
2023-01-03T09:51:44.103Z,92477.16
2023-01-03T09:54:30.691Z,92466.13
2023-01-03T09:57:16.121Z,92464.72
2023-01-03T10:00:01.237Z,92457.34
2023-01-03T10:02:49.476Z,92448.69
2023-01-03T10:05:19.088Z,92444.69
2023-01-03T10:08:10.589Z,92448.41
2023-01-03T10:11:12.239Z,92442.59
2023-01-03T10:14:10.707Z,92449.41
2023-01-03T10:16:42.013Z,92433.75
2023-01-03T10:19:40.882Z,92426.88
2023-01-03T10:22:11.434Z,92426.91
2023-01-03T10:24:50.177Z,92421.13
2023-01-03T10:27:17.832Z,92417.47
2023-01-03T10:29:45.282Z,92414.03
2023-01-03T10:32:29.056Z,92406.06
2023-01-03T10:35:04.789Z,92406.97
2023-01-03T10:37:31.408Z,92399.56
2023-01-03T10:40:04.390Z,92394.25
2023-01-03T10:42:32.581Z,92396.16
2023-01-03T10:45:21.485Z,92388.72
2023-01-03T10:48:01.106Z,92390.78
2023-01-03T10:50:28.229Z,92376.94
2023-01-03T10:53:05.349Z,92373.63
2023-01-03T10:55:32.112Z,92369.44
2023-01-03T10:58:00.406Z,92378.03
2023-01-03T11:00:34.111Z,92369.38
2023-01-03T11:03:17.600Z,92361.88
2023-01-03T11:05:46.358Z,92363.28
2023-01-03T11:08:37.264Z,92359.69
2023-01-03T11:11:03.934Z,92357.53
2023-01-03T11:13:40.864Z,92353.28
2023-01-03T11:16:15.934Z,92355.44
2023-01-03T11:18:43.342Z,92353.69
2023-01-03T11:21:23.765Z,92345.78
2023-01-03T11:24:24.179Z,92344.97
2023-01-03T11:27:24.532Z,92345.13
2023-01-03T11:30:15.153Z,92342.59
2023-01-03T11:33:05.047Z,92334.06
2023-01-03T11:35:35.059Z,92327.31
2023-01-03T11:38:07.616Z,92321.50
2023-01-03T11:41:19.300Z,92325.72
2023-01-03T11:44:22.430Z,92315.41
2023-01-03T11:47:10.638Z,92310.19
2023-01-03T11:49:40.340Z,92309.13
2023-01-03T11:52:19.782Z,92306.84
2023-01-03T11:55:20.934Z,92304.41
2023-01-03T11:57:57.535Z,92304.38
2023-01-03T12:00:46.869Z,92302.50
2023-01-03T12:03:50.942Z,92304.47
2023-01-03T12:06:33.048Z,92303.81
2023-01-03T12:09:02.728Z,92309.53
2023-01-03T12:11:47.269Z,92299.84
2023-01-03T12:14:16.762Z,92300.50
2023-01-03T12:17:08.509Z,92293.75
2023-01-03T12:19:50.324Z,92292.00
2023-01-03T12:22:28.851Z,92294.09
2023-01-03T12:25:05.783Z,92287.47
2023-01-03T12:27:37.511Z,92285.59
2023-01-03T12:30:07.910Z,92291.56
2023-01-03T12:32:51.279Z,92289.00
2023-01-03T12:35:31.111Z,92279.63
2023-01-03T12:37:57.999Z,92280.97
2023-01-03T12:40:51.790Z,92278.63
2023-01-03T12:43:33.903Z,92289.66
2023-01-03T12:46:12.175Z,92287.03
2023-01-03T12:48:54.056Z,92278.28
2023-01-03T12:51:21.825Z,92277.84
2023-01-03T12:54:05.832Z,92290.00
2023-01-03T12:56:53.708Z,92286.09
2023-01-03T12:59:50.357Z,92287.69
2023-01-03T13:02:41.928Z,92286.03
2023-01-03T13:05:25.436Z,92282.25
2023-01-03T13:08:01.416Z,92277.56
2023-01-03T13:10:28.772Z,92280.97
2023-01-03T13:12:55.356Z,92280.75
2023-01-03T13:15:37.123Z,92282.84
2023-01-03T13:18:31.592Z,92285.50
2023-01-03T13:20:58.402Z,92295.22
2023-01-03T13:23:35.367Z,92287.59
2023-01-03T13:26:05.435Z,92295.69
2023-01-03T13:28:33.420Z,92286.03
2023-01-03T13:31:17.226Z,92292.88
2023-01-03T13:34:17.510Z,92290.69
2023-01-03T13:37:07.247Z,92289.91
2023-01-03T13:39:52.101Z,92291.19
2023-01-03T13:42:27.816Z,92297.28
2023-01-03T13:45:17.447Z,92292.63
2023-01-03T13:47:47.178Z,92296.06
2023-01-03T13:50:24.575Z,92287.31
2023-01-03T13:52:58.397Z,92298.53
2023-01-03T13:55:36.853Z,92289.50
2023-01-03T13:58:22.593Z,92288.72
2023-01-03T14:00:49.242Z,92294.81
2023-01-03T14:03:46.440Z,92294.16
2023-01-03T14:06:17.707Z,92294.63
2023-01-03T14:09:16.117Z,92297.97
2023-01-03T14:11:45.809Z,92294.75
2023-01-03T14:14:20.156Z,92298.34
2023-01-03T14:16:48.995Z,92297.44
2023-01-03T14:19:15.643Z,92295.88
2023-01-03T14:21:57.750Z,92297.56
2023-01-03T14:24:26.743Z,92299.09
2023-01-03T14:26:53.749Z,92300.78
2023-01-03T14:29:24.458Z,92296.63
2023-01-03T14:31:55.642Z,92302.78
2023-01-03T14:34:29.329Z,92298.41
2023-01-03T14:37:06.956Z,92296.16
2023-01-03T14:42:00.900Z,92292.34
2023-01-03T14:44:29.279Z,92296.56
2023-01-03T14:46:57.613Z,92303.41
2023-01-03T14:49:41.707Z,92301.13
2023-01-03T14:52:19.582Z,92296.69
2023-01-03T14:54:47.747Z,92310.34
2023-01-03T14:57:23.194Z,92317.28
2023-01-03T14:59:49.955Z,92312.34
2023-01-03T15:02:17.000Z,92312.22
2023-01-03T15:04:44.663Z,92310.38
2023-01-03T15:07:27.694Z,92319.03
2023-01-03T15:10:09.467Z,92322.78
2023-01-03T15:12:37.096Z,92320.69
2023-01-03T15:15:16.644Z,92331.44
2023-01-03T15:17:43.248Z,92323.59
2023-01-03T15:20:10.383Z,92322.66
2023-01-03T15:22:40.565Z,92320.34
2023-01-03T15:25:16.241Z,92335.84
2023-01-03T15:27:44.398Z,92325.81
2023-01-03T15:30:26.058Z,92336.88
2023-01-03T15:32:54.538Z,92333.47
2023-01-03T15:35:23.026Z,92341.53
2023-01-03T15:37:53.071Z,92346.63
2023-01-03T15:40:20.001Z,92344.91
2023-01-03T15:43:05.070Z,92346.13
2023-01-03T15:45:37.895Z,92344.28
2023-01-03T15:48:13.699Z,92344.97
2023-01-03T15:50:48.986Z,92348.50
2023-01-03T15:53:28.809Z,92342.84
2023-01-03T15:55:59.377Z,92355.44
2023-01-03T15:58:26.303Z,92362.84
2023-01-03T16:00:53.439Z,92359.50
2023-01-03T16:03:20.318Z,92362.19
2023-01-03T16:05:47.496Z,92368.75
2023-01-03T16:08:33.814Z,92374.47
2023-01-03T16:11:02.405Z,92382.25
2023-01-03T16:13:31.305Z,92378.38
2023-01-03T16:15:58.211Z,92377.00
2023-01-03T16:18:44.805Z,92377.06
2023-01-03T16:21:12.720Z,92381.97
2023-01-03T16:23:39.448Z,92371.25
2023-01-03T16:26:07.917Z,92380.66
2023-01-03T16:28:34.913Z,92390.56
2023-01-03T16:31:30.918Z,92395.22
2023-01-03T16:33:57.703Z,92388.38
2023-01-03T16:36:39.405Z,92389.53
2023-01-03T16:39:07.411Z,92398.88
2023-01-03T16:41:34.068Z,92399.69
2023-01-03T16:44:00.742Z,92410.38
2023-01-03T16:46:27.570Z,92403.53
2023-01-03T16:48:55.636Z,92410.97
2023-01-03T16:51:27.128Z,92407.06
2023-01-03T16:53:54.680Z,92408.06
2023-01-03T16:56:21.718Z,92412.63
2023-01-03T16:58:48.467Z,92416.09
2023-01-03T17:01:15.174Z,92419.91
2023-01-03T17:03:42.592Z,92427.41
2023-01-03T17:06:37.419Z,92416.56
2023-01-03T17:09:16.820Z,92427.56
2023-01-03T17:11:44.003Z,92426.47
2023-01-03T17:14:18.906Z,92427.84
2023-01-03T17:16:45.662Z,92424.97
2023-01-03T17:20:00.303Z,92419.94
2023-01-03T17:22:27.056Z,92434.72
2023-01-03T17:24:53.726Z,92434.72
2023-01-03T17:27:25.163Z,92433.38
2023-01-03T17:30:00.921Z,92436.03
2023-01-03T17:32:28.513Z,92440.56
2023-01-03T17:34:55.122Z,92442.38
2023-01-03T17:37:21.967Z,92442.13
2023-01-03T17:39:54.288Z,92447.72
2023-01-03T17:42:20.976Z,92441.88
2023-01-03T17:45:06.964Z,92448.53
2023-01-03T17:47:58.911Z,92453.06
2023-01-03T17:50:25.893Z,92457.44
2023-01-03T17:52:55.998Z,92451.44
2023-01-03T17:55:30.436Z,92454.84
2023-01-03T17:57:57.377Z,92467.19
2023-01-03T18:00:26.449Z,92461.59
2023-01-03T18:02:54.297Z,92452.91
2023-01-03T18:05:27.417Z,92463.16
2023-01-03T18:07:58.593Z,92455.03
2023-01-03T18:10:47.356Z,92456.50
2023-01-03T18:13:24.404Z,92460.00
2023-01-03T18:15:51.263Z,92455.94
2023-01-03T18:18:18.937Z,92453.78
2023-01-03T18:20:45.860Z,92450.03
2023-01-03T18:23:22.393Z,92453.25
2023-01-03T18:25:49.175Z,92449.41
2023-01-03T18:28:16.364Z,92454.47
2023-01-03T18:30:43.127Z,92458.22
2023-01-03T18:33:10.136Z,92448.97
2023-01-03T18:35:38.383Z,92448.00
2023-01-03T18:38:05.287Z,92452.84
2023-01-03T18:40:32.104Z,92455.41
2023-01-03T18:43:08.694Z,92446.78
2023-01-03T18:45:36.103Z,92452.16
2023-01-03T18:48:02.791Z,92451.31
2023-01-03T18:50:29.529Z,92452.22
2023-01-03T18:52:56.249Z,92457.28
2023-01-03T18:55:24.107Z,92453.91
2023-01-03T18:57:52.282Z,92451.59
2023-01-03T19:00:21.088Z,92453.09
2023-01-03T19:02:48.044Z,92446.16
2023-01-03T19:05:14.738Z,92450.91
2023-01-03T19:07:41.585Z,92446.22
2023-01-03T19:10:37.661Z,92449.66
2023-01-03T19:13:04.274Z,92447.69
2023-01-03T19:15:31.028Z,92448.50
2023-01-03T19:17:57.864Z,92456.13
2023-01-03T19:20:27.044Z,92461.38
2023-01-03T19:22:53.991Z,92462.09
2023-01-03T19:25:24.781Z,92459.22
2023-01-03T19:27:53.444Z,92466.09
2023-01-03T19:30:35.273Z,92454.13
2023-01-03T19:33:04.987Z,92455.09
2023-01-03T19:35:31.600Z,92460.78
2023-01-03T19:37:58.285Z,92464.25
2023-01-03T19:40:26.380Z,92470.13
2023-01-03T19:42:57.338Z,92466.50
2023-01-03T19:45:37.152Z,92471.88
2023-01-03T19:48:26.409Z,92472.00
2023-01-03T19:50:53.209Z,92477.75
2023-01-03T19:53:19.977Z,92470.22
2023-01-03T19:55:47.774Z,92481.38
2023-01-03T19:58:29.260Z,92480.59
2023-01-03T20:00:56.076Z,92482.47
2023-01-03T20:03:46.044Z,92479.59
2023-01-03T20:06:14.224Z,92479.72
2023-01-03T20:08:40.888Z,92479.38
2023-01-03T20:11:14.414Z,92485.78
2023-01-03T20:13:41.096Z,92482.69
2023-01-03T20:16:09.183Z,92477.84
2023-01-03T20:18:40.168Z,92487.63
2023-01-03T20:21:06.638Z,92481.47
2023-01-03T20:23:36.208Z,92487.13
2023-01-03T20:26:03.634Z,92479.25
2023-01-03T20:28:31.085Z,92488.94
2023-01-03T20:30:58.758Z,92479.47
2023-01-03T20:33:25.886Z,92482.06
2023-01-03T20:36:11.146Z,92479.81
2023-01-03T20:38:40.927Z,92482.41
2023-01-03T20:41:07.641Z,92479.84
2023-01-03T20:43:34.283Z,92480.25
2023-01-03T20:46:01.010Z,92482.75
2023-01-03T20:48:27.727Z,92489.50
2023-01-03T20:50:54.749Z,92481.16
2023-01-03T20:53:26.536Z,92482.28
2023-01-03T20:55:53.419Z,92473.59
2023-01-03T20:58:27.845Z,92477.75
2023-01-03T21:01:01.981Z,92469.66
2023-01-03T21:03:31.241Z,92479.88
2023-01-03T21:05:59.083Z,92469.00
2023-01-03T21:08:44.376Z,92470.56
2023-01-03T21:11:12.256Z,92469.69
2023-01-03T21:13:39.093Z,92471.25
2023-01-03T21:16:31.992Z,92464.97
2023-01-03T21:19:08.017Z,92466.09
2023-01-03T21:21:34.843Z,92464.41
2023-01-03T21:24:01.913Z,92463.50
2023-01-03T21:26:28.660Z,92461.59
2023-01-03T21:28:55.295Z,92455.41
2023-01-03T21:31:22.487Z,92463.72
2023-01-03T21:33:49.342Z,92471.84
2023-01-03T21:36:37.217Z,92467.44
2023-01-03T21:39:03.952Z,92473.00
2023-01-03T21:41:32.905Z,92463.72
2023-01-03T21:44:01.349Z,92457.94
2023-01-03T21:46:28.096Z,92460.25
2023-01-03T21:48:54.893Z,92459.91
2023-01-03T21:51:33.477Z,92464.38
2023-01-03T21:54:04.590Z,92468.00
2023-01-03T21:56:31.288Z,92475.22
2023-01-03T21:58:57.873Z,92466.75
2023-01-03T22:01:24.811Z,92468.09
2023-01-03T22:04:10.223Z,92465.75
2023-01-03T22:06:37.110Z,92471.88
2023-01-03T22:09:05.215Z,92468.94
2023-01-03T22:11:32.503Z,92475.81
2023-01-03T22:13:59.807Z,92465.69
2023-01-03T22:16:26.594Z,92462.22
2023-01-03T22:18:53.264Z,92468.00
2023-01-03T22:21:21.297Z,92463.31
2023-01-03T22:23:47.968Z,92467.63
2023-01-03T22:26:15.583Z,92463.97
2023-01-03T22:28:43.668Z,92464.28
2023-01-03T22:31:16.330Z,92461.78
2023-01-03T22:33:43.919Z,92468.22
2023-01-03T22:36:10.737Z,92463.34
2023-01-03T22:38:37.635Z,92461.03
2023-01-03T22:41:17.112Z,92464.81
2023-01-03T22:43:44.052Z,92456.38
2023-01-03T22:46:15.404Z,92446.50
2023-01-03T22:48:42.500Z,92452.56
2023-01-03T22:51:10.964Z,92447.28
2023-01-03T22:53:38.436Z,92448.28
2023-01-03T22:56:05.910Z,92448.50
2023-01-03T22:58:34.069Z,92452.78
2023-01-03T23:01:16.039Z,92465.97
2023-01-03T23:03:46.314Z,92453.41
2023-01-03T23:06:15.639Z,92458.25
2023-01-03T23:08:42.390Z,92453.59
2023-01-03T23:11:34.922Z,92451.84
2023-01-03T23:14:03.275Z,92453.69
2023-01-03T23:16:31.135Z,92447.72
2023-01-03T23:18:58.525Z,92443.00
2023-01-03T23:21:25.139Z,92445.00
2023-01-03T23:23:51.837Z,92443.41
2023-01-03T23:26:18.587Z,92438.22
2023-01-03T23:28:45.309Z,92437.63
2023-01-03T23:31:12.067Z,92441.53
2023-01-03T23:33:38.922Z,92445.84
2023-01-03T23:36:09.549Z,92443.28
2023-01-03T23:38:36.289Z,92440.69
2023-01-03T23:41:06.977Z,92444.97
2023-01-03T23:43:34.189Z,92445.31
2023-01-03T23:46:00.923Z,92439.06
2023-01-03T23:48:27.824Z,92451.25
2023-01-03T23:51:04.460Z,92449.59
2023-01-03T23:53:31.246Z,92450.00
2023-01-03T23:55:58.113Z,92445.75
2023-01-03T23:58:24.905Z,92445.63
